Time;durP1;ratioP1;P1;durP2;ratioP2;P2;SDS_P1;SDS_P2;PMS_P1;PMS_P2;Temp;Humidity;BMP_temperature;BMP_pressure;BME280_temperature;BME280_humidity;BME280_pressure;Samples;Min_cycle;Max_cycle;Signal;HPM_P1;HPM_P2
2021/08/17 00:01:54;;;;;;;7.53;6.83;;;15.90;99.90;;;;;;5043274;28;20220;-81
2021/08/17 00:04:20;;;;;;;8.40;6.97;;;15.90;99.90;;;;;;5025242;28;20215;-81
2021/08/17 00:06:45;;;;;;;8.70;6.73;;;16.00;99.90;;;;;;5011581;28;20184;-81
2021/08/17 00:09:13;;;;;;;8.03;6.77;;;16.10;99.90;;;;;;5013746;28;20257;-81
2021/08/17 00:11:39;;;;;;;7.23;6.00;;;16.10;99.90;;;;;;5009614;28;20194;-82
2021/08/17 00:14:04;;;;;;;9.00;8.10;;;16.10;99.90;;;;;;5042878;28;20198;-81
2021/08/17 00:16:30;;;;;;;9.27;7.50;;;16.10;99.90;;;;;;5040458;28;20194;-81
2021/08/17 00:18:56;;;;;;;11.53;9.20;;;16.10;99.90;;;;;;5022855;28;20174;-81
2021/08/17 00:21:22;;;;;;;11.70;8.80;;;16.10;99.90;;;;;;5036801;28;20205;-81
2021/08/17 00:23:47;;;;;;;10.47;8.90;;;16.10;99.90;;;;;;5011857;28;20194;-81
2021/08/17 00:26:13;;;;;;;9.93;9.03;;;15.90;99.90;;;;;;5024190;28;20185;-81
2021/08/17 00:28:39;;;;;;;12.53;9.87;;;15.80;99.90;;;;;;5024201;28;20181;-81
2021/08/17 00:31:04;;;;;;;12.67;9.47;;;15.80;99.90;;;;;;5043130;28;20203;-81
2021/08/17 00:33:30;;;;;;;13.60;9.97;;;15.90;99.90;;;;;;5024353;28;20181;-81
2021/08/17 00:35:56;;;;;;;12.83;10.53;;;15.80;99.90;;;;;;5042234;28;20236;-81
2021/08/17 00:38:22;;;;;;;12.70;10.10;;;15.70;99.90;;;;;;5027530;28;20669;-81
2021/08/17 00:40:48;;;;;;;14.07;10.70;;;15.80;99.90;;;;;;5025040;28;20198;-81
2021/08/17 00:43:13;;;;;;;11.23;9.73;;;15.90;99.90;;;;;;5037592;28;20265;-80
2021/08/17 00:45:39;;;;;;;11.70;9.73;;;15.80;99.90;;;;;;5029312;28;20174;-81
2021/08/17 00:48:05;;;;;;;13.40;9.40;;;15.80;99.90;;;;;;5029449;28;20191;-82
2021/08/17 00:50:33;;;;;;;12.00;9.30;;;15.80;99.90;;;;;;5045784;28;20182;-82
2021/08/17 00:52:59;;;;;;;13.83;9.33;;;15.80;99.90;;;;;;5028246;28;20186;-82
2021/08/17 00:55:27;;;;;;;12.63;9.97;;;15.80;99.90;;;;;;5045860;28;20178;-81
2021/08/17 00:57:53;;;;;;;12.03;10.63;;;15.90;99.90;;;;;;5045846;28;20498;-82
2021/08/17 01:00:19;;;;;;;13.27;10.63;;;15.90;99.90;;;;;;5015357;28;20235;-82
2021/08/17 01:02:46;;;;;;;14.63;11.13;;;15.80;99.90;;;;;;5021681;28;20215;-81
2021/08/17 01:05:12;;;;;;;13.13;10.53;;;15.80;99.90;;;;;;5017956;28;20178;-82
2021/08/17 01:07:39;;;;;;;12.73;10.03;;;15.70;99.90;;;;;;5042510;28;20184;-81
2021/08/17 01:10:06;;;;;;;12.23;9.50;;;15.90;99.90;;;;;;5038342;28;20189;-81
2021/08/17 01:12:33;;;;;;;12.07;9.87;;;15.90;99.90;;;;;;5020883;28;20198;-81
2021/08/17 01:14:59;;;;;;;11.77;10.57;;;15.90;99.90;;;;;;5027251;28;20744;-81
2021/08/17 01:17:25;;;;;;;14.27;10.83;;;15.70;99.90;;;;;;5045042;28;20231;-81
2021/08/17 01:19:51;;;;;;;13.23;10.53;;;15.80;99.90;;;;;;5046069;28;20198;-81
2021/08/17 01:22:17;;;;;;;16.97;11.87;;;15.70;99.90;;;;;;5045673;28;20796;-81
2021/08/17 01:24:43;;;;;;;12.97;11.60;;;15.70;99.90;;;;;;5027665;28;20239;-81
2021/08/17 01:27:12;;;;;;;15.63;10.70;;;15.80;99.90;;;;;;5028019;28;20239;-81
2021/08/17 01:29:39;;;;;;;15.87;11.70;;;15.60;99.90;;;;;;5027495;28;20180;-81
2021/08/17 01:32:05;;;;;;;15.07;12.83;;;15.70;99.90;;;;;;5044853;28;20201;-81
2021/08/17 01:34:30;;;;;;;18.20;12.83;;;15.70;99.90;;;;;;5044410;28;20186;-81
2021/08/17 01:36:56;;;;;;;15.67;12.40;;;15.70;99.90;;;;;;5044088;28;20263;-81
2021/08/17 01:39:22;;;;;;;14.97;11.67;;;15.70;99.90;;;;;;5008134;28;20187;-81
2021/08/17 01:41:49;;;;;;;15.37;11.40;;;15.70;99.90;;;;;;5038716;28;20198;-81
2021/08/17 01:44:15;;;;;;;17.43;12.63;;;15.50;99.90;;;;;;5033317;28;20272;-81
2021/08/17 01:46:45;;;;;;;14.73;11.50;;;15.30;99.90;;;;;;5003688;28;20251;-81
2021/08/17 01:49:18;;;;;;;14.83;11.90;;;15.30;99.90;;;;;;5041932;28;20179;-81
2021/08/17 01:51:45;;;;;;;15.17;11.27;;;15.40;99.90;;;;;;5032029;28;20198;-81
2021/08/17 01:54:12;;;;;;;18.80;12.10;;;15.40;99.90;;;;;;5028531;28;20189;-81
2021/08/17 01:56:38;;;;;;;14.87;12.07;;;15.40;99.90;;;;;;5044776;28;20186;-82
2021/08/17 01:59:04;;;;;;;17.93;13.20;;;15.40;99.90;;;;;;5025144;28;20196;-82
2021/08/17 02:01:29;;;;;;;16.30;11.97;;;15.40;99.90;;;;;;5013785;28;20214;-81
2021/08/17 02:03:55;;;;;;;16.27;12.47;;;15.50;99.90;;;;;;5027533;28;20252;-82
2021/08/17 02:06:21;;;;;;;16.30;12.73;;;15.50;99.90;;;;;;5038789;28;20180;-81
2021/08/17 02:08:46;;;;;;;17.03;12.93;;;15.60;99.90;;;;;;5037762;28;20175;-82
2021/08/17 02:11:12;;;;;;;17.17;13.00;;;15.50;99.90;;;;;;5010125;28;20766;-82
2021/08/17 02:13:38;;;;;;;14.73;12.17;;;15.50;99.90;;;;;;5021029;28;20187;-81
2021/08/17 02:16:03;;;;;;;16.83;12.50;;;15.50;99.90;;;;;;5039537;28;20178;-82
2021/08/17 02:18:31;;;;;;;15.57;12.80;;;15.50;99.90;;;;;;5045443;28;20183;-82
2021/08/17 02:21:00;;;;;;;16.67;12.40;;;15.50;99.90;;;;;;5030641;28;20571;-82
2021/08/17 02:23:26;;;;;;;17.63;12.23;;;15.60;99.90;;;;;;4997985;28;20229;-82
2021/08/17 02:25:52;;;;;;;16.70;13.20;;;15.50;99.90;;;;;;5030988;28;20170;-81
2021/08/17 02:28:19;;;;;;;18.00;11.40;;;15.40;99.90;;;;;;5041539;28;20199;-81
2021/08/17 02:30:49;;;;;;;15.17;11.80;;;15.40;99.90;;;;;;5044670;28;20195;-81
2021/08/17 02:33:16;;;;;;;18.57;12.23;;;15.40;99.90;;;;;;5044551;28;20213;-82
2021/08/17 02:35:42;;;;;;;18.17;12.63;;;15.40;99.90;;;;;;5021655;28;20237;-82
2021/08/17 02:38:10;;;;;;;16.37;12.00;;;15.40;99.90;;;;;;5035510;28;20183;-81
2021/08/17 02:40:36;;;;;;;14.57;12.30;;;15.40;99.90;;;;;;5044853;28;20579;-81
2021/08/17 02:43:01;;;;;;;15.67;12.97;;;15.30;99.90;;;;;;5026359;28;20191;-81
2021/08/17 02:45:27;;;;;;;16.47;12.63;;;15.20;99.90;;;;;;5026253;28;20225;-81
2021/08/17 02:48:00;;;;;;;16.07;12.63;;;15.20;99.90;;;;;;5022638;28;20178;-82
2021/08/17 02:50:26;;;;;;;19.93;14.40;;;15.20;99.90;;;;;;5038149;28;20209;-81
2021/08/17 02:52:53;;;;;;;17.67;13.37;;;15.20;99.90;;;;;;5026737;28;20657;-81
2021/08/17 02:55:19;;;;;;;16.00;12.47;;;15.20;99.90;;;;;;5026089;28;20263;-82
2021/08/17 02:57:51;;;;;;;18.70;13.10;;;15.20;99.90;;;;;;5043584;28;20175;-81
2021/08/17 03:00:18;;;;;;;16.57;13.47;;;15.10;99.90;;;;;;5043070;28;20253;-81
2021/08/17 03:02:44;;;;;;;19.07;13.30;;;14.90;99.90;;;;;;5025572;28;20210;-81
2021/08/17 03:05:11;;;;;;;19.67;12.93;;;14.90;99.90;;;;;;5043840;28;20170;-81
2021/08/17 03:07:37;;;;;;;19.20;13.40;;;14.80;99.90;;;;;;5027836;28;20171;-81
2021/08/17 03:10:04;;;;;;;21.73;13.77;;;14.80;99.90;;;;;;5023507;28;20167;-81
2021/08/17 03:12:30;;;;;;;22.43;14.07;;;14.70;99.90;;;;;;5037541;28;20195;-81
2021/08/17 03:14:55;;;;;;;17.67;13.57;;;14.70;99.90;;;;;;5026655;28;20610;-81
2021/08/17 03:17:21;;;;;;;20.17;14.30;;;14.70;99.90;;;;;;5031403;28;20596;-81
2021/08/17 03:19:46;;;;;;;18.83;13.67;;;14.80;99.90;;;;;;5041786;28;20179;-80
2021/08/17 03:22:12;;;;;;;19.07;13.13;;;14.80;99.90;;;;;;5033154;28;20199;-81
2021/08/17 03:24:38;;;;;;;21.67;14.27;;;14.90;99.90;;;;;;5009310;28;20202;-81
2021/08/17 03:27:04;;;;;;;20.47;13.87;;;14.80;99.90;;;;;;5022923;28;20645;-81
2021/08/17 03:29:29;;;;;;;21.20;14.17;;;14.80;99.90;;;;;;5043575;28;20185;-81
2021/08/17 03:31:55;;;;;;;17.37;13.20;;;14.80;99.90;;;;;;5024609;28;20289;-81
2021/08/17 03:34:21;;;;;;;18.03;13.40;;;14.80;99.90;;;;;;5034984;28;20187;-81
2021/08/17 03:36:46;;;;;;;17.67;13.43;;;14.80;99.90;;;;;;5022743;28;20549;-81
2021/08/17 03:39:12;;;;;;;20.10;12.87;;;14.80;99.90;;;;;;5010916;28;20182;-81
2021/08/17 03:41:38;;;;;;;18.03;12.93;;;14.80;99.90;;;;;;5025083;28;20206;-81
2021/08/17 03:44:04;;;;;;;17.07;12.30;;;14.80;99.90;;;;;;5039080;28;20226;-82
2021/08/17 03:46:29;;;;;;;15.23;11.50;;;14.70;99.90;;;;;;5033520;28;20189;-81
2021/08/17 03:48:55;;;;;;;19.23;13.13;;;14.70;99.90;;;;;;5042434;28;20182;-81
2021/08/17 03:51:20;;;;;;;21.67;12.93;;;14.60;99.90;;;;;;5034669;28;20203;-81
2021/08/17 03:53:46;;;;;;;14.13;12.37;;;14.50;99.90;;;;;;5037320;28;20192;-81
2021/08/17 03:56:12;;;;;;;14.97;12.37;;;14.60;99.90;;;;;;5005641;28;20325;-81
2021/08/17 03:58:37;;;;;;;19.07;12.37;;;14.40;99.90;;;;;;5017110;28;20193;-81
2021/08/17 04:01:03;;;;;;;18.27;12.83;;;14.40;99.90;;;;;;5022780;28;20274;-81
2021/08/17 04:03:29;;;;;;;17.53;12.77;;;14.30;99.90;;;;;;5031435;28;20206;-81
2021/08/17 04:05:54;;;;;;;20.30;13.03;;;14.30;99.90;;;;;;5010879;28;20179;-81
2021/08/17 04:08:20;;;;;;;17.63;13.60;;;14.20;99.90;;;;;;5023245;28;20179;-81
2021/08/17 04:10:46;;;;;;;19.00;13.23;;;14.20;99.90;;;;;;5025319;28;20223;-81
2021/08/17 04:13:12;;;;;;;19.23;12.87;;;14.20;99.90;;;;;;5016515;28;20277;-80
2021/08/17 04:15:38;;;;;;;15.70;12.00;;;14.30;99.90;;;;;;5044636;28;20213;-81
2021/08/17 04:18:04;;;;;;;17.73;11.40;;;14.30;99.90;;;;;;5046890;28;20178;-81
2021/08/17 04:20:30;;;;;;;11.90;10.40;;;14.20;99.90;;;;;;5047438;28;20189;-82
2021/08/17 04:22:56;;;;;;;13.13;10.63;;;14.30;99.90;;;;;;5042995;28;20182;-81
2021/08/17 04:25:22;;;;;;;14.87;11.33;;;14.20;99.90;;;;;;5042076;28;20178;-81
2021/08/17 04:27:48;;;;;;;12.33;9.40;;;14.30;99.90;;;;;;5034660;28;20618;-81
2021/08/17 04:30:17;;;;;;;11.07;9.23;;;14.30;99.90;;;;;;5024295;28;20201;-81
2021/08/17 04:32:43;;;;;;;9.93;8.93;;;14.30;99.90;;;;;;5045572;28;20213;-80
2021/08/17 04:35:09;;;;;;;10.57;9.13;;;14.20;99.90;;;;;;5034752;28;20262;-81
2021/08/17 04:37:34;;;;;;;10.60;8.50;;;14.20;99.90;;;;;;5032902;28;20539;-81
2021/08/17 04:40:01;;;;;;;11.93;9.17;;;14.20;99.90;;;;;;5028167;28;20182;-81
2021/08/17 04:42:26;;;;;;;10.37;8.83;;;14.30;99.90;;;;;;5031919;28;20221;-81
2021/08/17 04:44:52;;;;;;;10.67;8.23;;;14.30;99.90;;;;;;5017382;28;20191;-80
2021/08/17 04:47:18;;;;;;;15.67;9.17;;;14.30;99.90;;;;;;5010407;28;20598;-80
2021/08/17 04:49:43;;;;;;;11.90;9.10;;;14.30;99.90;;;;;;5037118;28;20171;-80
2021/08/17 04:52:09;;;;;;;11.93;8.00;;;14.30;99.90;;;;;;5039678;28;20194;-80
2021/08/17 04:54:37;;;;;;;13.83;9.27;;;14.30;99.90;;;;;;5026602;28;20175;-80
2021/08/17 04:57:04;;;;;;;11.77;8.37;;;14.40;99.90;;;;;;5019773;28;20593;-80
2021/08/17 04:59:30;;;;;;;9.27;7.57;;;14.40;99.90;;;;;;5044866;28;20199;-80
2021/08/17 05:01:56;;;;;;;8.33;7.33;;;14.40;99.90;;;;;;5045267;28;20651;-80
2021/08/17 05:04:21;;;;;;;9.47;8.23;;;14.30;99.90;;;;;;5028582;28;20171;-81
2021/08/17 05:06:47;;;;;;;10.17;8.00;;;14.20;99.90;;;;;;5009198;28;20218;-80
2021/08/17 05:09:12;;;;;;;8.80;7.90;;;14.10;99.90;;;;;;5022759;28;20183;-80
2021/08/17 05:11:38;;;;;;;10.73;8.97;;;14.20;99.90;;;;;;5008453;28;20199;-80
2021/08/17 05:14:06;;;;;;;11.03;9.07;;;14.20;99.90;;;;;;5026174;28;20194;-81
2021/08/17 05:16:32;;;;;;;9.90;8.60;;;14.10;99.90;;;;;;5026161;28;20177;-81
2021/08/17 05:18:57;;;;;;;10.13;8.87;;;14.20;99.90;;;;;;5034274;28;20182;-80
2021/08/17 05:21:23;;;;;;;14.60;10.07;;;14.30;99.90;;;;;;5011216;28;20194;-81
2021/08/17 05:23:49;;;;;;;11.30;9.53;;;14.30;99.90;;;;;;5045341;28;20183;-81
2021/08/17 05:26:15;;;;;;;15.50;10.70;;;14.30;99.90;;;;;;5027334;28;20186;-80
2021/08/17 05:28:41;;;;;;;15.13;10.73;;;14.20;99.90;;;;;;5044869;28;20236;-82
2021/08/17 05:31:06;;;;;;;10.20;8.50;;;14.20;99.90;;;;;;5027261;28;20616;-81
2021/08/17 05:33:32;;;;;;;14.47;10.67;;;14.30;99.90;;;;;;5031014;28;20562;-81
2021/08/17 05:35:58;;;;;;;14.20;9.60;;;14.30;99.90;;;;;;5028311;28;20179;-81
2021/08/17 05:38:24;;;;;;;11.50;9.53;;;14.40;99.90;;;;;;5044389;28;20253;-80
2021/08/17 05:40:50;;;;;;;10.97;9.53;;;14.50;99.90;;;;;;5029967;28;20275;-80
2021/08/17 05:43:15;;;;;;;10.30;9.20;;;14.50;99.90;;;;;;5026901;28;20178;-82
2021/08/17 05:45:41;;;;;;;10.23;9.13;;;14.40;99.90;;;;;;5044228;28;20178;-80
2021/08/17 05:48:07;;;;;;;9.87;8.67;;;14.50;99.90;;;;;;5018077;28;20210;-81
2021/08/17 05:50:32;;;;;;;9.20;8.23;;;14.60;99.90;;;;;;5007341;28;20182;-79
2021/08/17 05:52:58;;;;;;;16.83;8.80;;;14.60;99.90;;;;;;5015031;28;20290;-80
2021/08/17 05:55:24;;;;;;;10.27;7.77;;;14.60;99.90;;;;;;5027386;28;20185;-81
2021/08/17 05:57:55;;;;;;;10.10;8.13;;;14.60;99.90;;;;;;5013726;28;20251;-82
2021/08/17 06:00:20;;;;;;;10.97;8.30;;;14.50;99.90;;;;;;5016114;28;20183;-82
2021/08/17 06:02:46;;;;;;;14.20;8.37;;;14.40;99.90;;;;;;5041784;23;20258;-74
2021/08/17 06:05:12;;;;;;;8.73;7.83;;;14.40;99.90;;;;;;5015183;28;20187;-74
2021/08/17 06:07:37;;;;;;;12.53;8.67;;;14.40;99.90;;;;;;5016932;28;20183;-74
2021/08/17 06:10:04;;;;;;;11.03;8.40;;;14.30;99.90;;;;;;5026718;28;20179;-74
2021/08/17 06:12:30;;;;;;;12.43;8.20;;;14.30;99.90;;;;;;4997273;28;20195;-74
2021/08/17 06:14:55;;;;;;;12.10;9.43;;;14.30;99.90;;;;;;4994895;28;20226;-74
2021/08/17 06:17:21;;;;;;;9.90;8.67;;;14.40;99.90;;;;;;4979057;28;20271;-72
2021/08/17 06:19:46;;;;;;;11.17;7.80;;;14.50;99.90;;;;;;5007130;28;20164;-74
2021/08/17 06:22:12;;;;;;;13.07;7.23;;;14.60;99.90;;;;;;4977521;28;20208;-75
2021/08/17 06:24:38;;;;;;;8.17;6.53;;;14.60;99.90;;;;;;4995136;28;20182;-75
2021/08/17 06:27:03;;;;;;;7.27;6.57;;;14.60;99.90;;;;;;4997493;28;20186;-79
2021/08/17 06:29:29;;;;;;;9.37;7.60;;;14.60;99.90;;;;;;4987042;28;20241;-76
2021/08/17 06:31:55;;;;;;;9.33;6.90;;;14.60;99.90;;;;;;4991371;28;20195;-75
2021/08/17 06:34:20;;;;;;;7.90;6.47;;;14.60;99.90;;;;;;5002335;28;20729;-74
2021/08/17 06:36:46;;;;;;;11.00;6.73;;;14.50;99.90;;;;;;5000220;28;20640;-76
2021/08/17 06:39:12;;;;;;;7.50;6.77;;;14.50;99.90;;;;;;4994811;28;20184;-76
2021/08/17 06:41:38;;;;;;;9.77;7.53;;;14.60;99.90;;;;;;4994862;28;20202;-76
2021/08/17 06:44:04;;;;;;;10.47;7.57;;;14.60;99.90;;;;;;5008419;28;20183;-74
2021/08/17 06:46:30;;;;;;;9.53;7.57;;;14.60;99.90;;;;;;4994556;28;20651;-74
2021/08/17 06:48:55;;;;;;;6.83;6.00;;;14.60;99.90;;;;;;4994316;28;20266;-75
2021/08/17 06:51:21;;;;;;;8.70;6.63;;;14.50;99.90;;;;;;4994516;28;20200;-75
2021/08/17 06:53:47;;;;;;;8.00;7.20;;;14.40;99.90;;;;;;5007748;28;20197;-74
2021/08/17 06:56:13;;;;;;;8.53;7.63;;;14.40;99.90;;;;;;4994501;28;20218;-75
2021/08/17 06:58:39;;;;;;;8.23;6.73;;;14.50;99.90;;;;;;4976895;28;20203;-73
2021/08/17 07:01:05;;;;;;;8.00;7.10;;;14.50;99.90;;;;;;4981146;28;20586;-73
2021/08/17 07:03:30;;;;;;;8.60;6.83;;;14.60;99.90;;;;;;4994245;28;20192;-74
2021/08/17 07:05:57;;;;;;;8.33;7.00;;;14.70;99.90;;;;;;4995845;28;20179;-74
2021/08/17 07:08:23;;;;;;;9.90;7.90;;;14.70;99.90;;;;;;5006563;28;20215;-76
2021/08/17 07:10:49;;;;;;;9.23;7.70;;;14.70;99.90;;;;;;4994420;28;20207;-75
2021/08/17 07:13:14;;;;;;;8.70;7.23;;;14.70;99.90;;;;;;4976577;28;20772;-74
2021/08/17 07:15:41;;;;;;;10.57;7.30;;;14.80;99.90;;;;;;4994060;28;20378;-74
2021/08/17 07:18:07;;;;;;;8.40;6.93;;;14.80;99.90;;;;;;4994027;28;20175;-75
2021/08/17 07:20:33;;;;;;;10.33;7.17;;;14.90;99.90;;;;;;4976554;28;20180;-74
2021/08/17 07:22:59;;;;;;;8.37;6.60;;;15.00;99.90;;;;;;4993787;28;20682;-76
2021/08/17 07:25:25;;;;;;;7.37;5.80;;;15.00;99.90;;;;;;4976362;28;20226;-74
2021/08/17 07:27:51;;;;;;;7.17;6.47;;;15.00;99.90;;;;;;4993858;28;20555;-75
2021/08/17 07:30:20;;;;;;;7.20;6.50;;;15.10;99.90;;;;;;4993845;28;20172;-75
2021/08/17 07:32:46;;;;;;;8.60;7.13;;;15.10;99.90;;;;;;4993766;28;20219;-72
2021/08/17 07:35:17;;;;;;;8.20;6.47;;;15.10;99.90;;;;;;4993954;28;20273;-73
2021/08/17 07:37:44;;;;;;;8.63;6.93;;;15.10;99.90;;;;;;4994077;28;20267;-75
2021/08/17 07:40:11;;;;;;;9.90;6.60;;;15.20;99.90;;;;;;4976252;28;20176;-74
2021/08/17 07:42:37;;;;;;;8.77;6.13;;;15.30;99.90;;;;;;4993421;28;20234;-74
2021/08/17 07:45:05;;;;;;;10.73;6.70;;;15.40;99.90;;;;;;4993577;28;20574;-74
2021/08/17 07:47:31;;;;;;;6.90;6.20;;;15.50;99.90;;;;;;4976130;28;20267;-74
2021/08/17 07:49:57;;;;;;;8.57;6.87;;;15.60;99.90;;;;;;4993555;28;20259;-73
2021/08/17 07:52:23;;;;;;;8.17;7.20;;;15.60;99.90;;;;;;5007222;28;20222;-73
2021/08/17 07:54:48;;;;;;;6.77;6.00;;;15.60;99.90;;;;;;5004337;28;20197;-75
2021/08/17 07:57:14;;;;;;;8.43;5.97;;;15.70;99.90;;;;;;4999452;28;20200;-74
2021/08/17 07:59:39;;;;;;;7.17;6.43;;;15.70;99.90;;;;;;5004483;28;20179;-72
2021/08/17 08:02:05;;;;;;;6.97;5.97;;;15.80;99.90;;;;;;4993394;28;20208;-74
2021/08/17 08:04:31;;;;;;;7.40;6.17;;;15.90;99.90;;;;;;4993877;28;20176;-75
2021/08/17 08:06:57;;;;;;;8.67;6.93;;;16.00;99.90;;;;;;4981184;28;20177;-73
2021/08/17 08:09:22;;;;;;;8.60;6.57;;;16.00;99.90;;;;;;4992505;28;20217;-74
2021/08/17 08:11:51;;;;;;;8.13;6.87;;;16.00;99.90;;;;;;4993571;28;20310;-76
2021/08/17 08:14:17;;;;;;;8.37;7.17;;;16.10;99.90;;;;;;4993274;28;20291;-74
2021/08/17 08:16:42;;;;;;;9.37;7.43;;;16.20;99.90;;;;;;4993439;28;20183;-75
2021/08/17 08:19:08;;;;;;;8.00;7.03;;;16.20;99.90;;;;;;4993833;28;20595;-76
2021/08/17 08:21:34;;;;;;;8.57;7.03;;;16.20;99.90;;;;;;4993667;28;20206;-75
2021/08/17 08:24:01;;;;;;;8.10;6.77;;;16.20;99.90;;;;;;4976234;28;20194;-77
2021/08/17 08:26:27;;;;;;;7.53;6.47;;;16.30;99.90;;;;;;4994404;28;20642;-75
2021/08/17 08:28:52;;;;;;;7.53;6.67;;;16.40;99.90;;;;;;5012999;28;20189;-74
2021/08/17 08:31:18;;;;;;;7.60;6.80;;;16.40;99.90;;;;;;4999734;28;20176;-73
2021/08/17 08:33:47;;;;;;;7.13;6.27;;;16.40;99.90;;;;;;4975654;28;20206;-73
2021/08/17 08:36:13;;;;;;;7.13;6.03;;;16.50;99.90;;;;;;4993347;28;20188;-74
2021/08/17 08:38:39;;;;;;;7.27;5.47;;;16.50;99.90;;;;;;4993323;28;20694;-76
2021/08/17 08:41:05;;;;;;;7.27;5.57;;;16.50;99.90;;;;;;4993281;28;20285;-76
2021/08/17 08:43:31;;;;;;;6.07;5.47;;;16.40;99.90;;;;;;4995137;28;20233;-74
2021/08/17 08:45:56;;;;;;;6.90;6.10;;;16.40;99.90;;;;;;5004790;28;20223;-74
2021/08/17 08:48:23;;;;;;;8.37;5.03;;;16.50;99.90;;;;;;4993222;28;20189;-75
2021/08/17 08:50:50;;;;;;;6.37;5.70;;;16.60;99.90;;;;;;4993398;28;20187;-75
2021/08/17 08:53:19;;;;;;;6.40;5.73;;;16.60;99.90;;;;;;4992936;28;20301;-74
2021/08/17 08:55:44;;;;;;;7.17;6.20;;;16.60;99.90;;;;;;4993007;28;20179;-77
2021/08/17 08:58:11;;;;;;;6.63;6.03;;;16.60;99.90;;;;;;4994368;28;20674;-75
2021/08/17 09:00:37;;;;;;;6.33;5.63;;;16.60;99.90;;;;;;5001892;28;20194;-74
2021/08/17 09:03:03;;;;;;;7.63;6.27;;;16.70;99.90;;;;;;5007426;28;20219;-73
2021/08/17 09:05:29;;;;;;;8.67;6.27;;;16.60;99.90;;;;;;4996817;28;20555;-74
2021/08/17 09:07:56;;;;;;;6.23;5.50;;;16.70;99.90;;;;;;4979082;28;20658;-76
2021/08/17 09:10:28;;;;;;;6.57;5.70;;;16.80;99.90;;;;;;4996460;28;20653;-76
2021/08/17 09:12:57;;;;;;;7.27;5.53;;;16.80;99.90;;;;;;4996266;28;20213;-74
2021/08/17 09:15:29;;;;;;;6.97;6.27;;;16.80;99.90;;;;;;4996296;28;20182;-72
2021/08/17 09:18:12;;;;;;;6.03;5.43;;;17.00;99.90;;;;;;4996191;28;20190;-75
2021/08/17 09:20:40;;;;;;;6.00;5.40;;;17.20;99.90;;;;;;4996414;28;20179;-76
2021/08/17 09:23:26;;;;;;;6.77;5.43;;;17.40;99.90;;;;;;4978595;28;20199;-74
2021/08/17 09:26:17;;;;;;;6.40;5.80;;;17.60;99.90;;;;;;4996188;28;20176;-74
2021/08/17 09:28:43;;;;;;;6.10;5.50;;;17.70;99.90;;;;;;4995787;28;20283;-76
2021/08/17 09:31:32;;;;;;;6.07;5.47;;;17.80;99.90;;;;;;4996131;28;20183;-74
2021/08/17 09:33:58;;;;;;;6.27;5.67;;;17.80;99.90;;;;;;4995883;28;20199;-77
2021/08/17 09:36:24;;;;;;;9.33;7.37;;;17.80;99.90;;;;;;4996173;28;20176;-75
2021/08/17 09:38:49;;;;;;;7.77;6.97;;;17.90;99.90;;;;;;4996116;28;20199;-75
2021/08/17 09:41:23;;;;;;;6.90;6.20;;;17.80;99.90;;;;;;4979087;28;20225;-75
2021/08/17 09:44:02;;;;;;;7.50;6.27;;;17.50;99.90;;;;;;5009666;28;20580;-76
2021/08/17 09:46:35;;;;;;;7.23;6.50;;;17.50;99.90;;;;;;4996272;28;20183;-76
2021/08/17 09:49:17;;;;;;;10.97;6.97;;;17.60;99.90;;;;;;4978411;28;20188;-74
2021/08/17 09:51:46;;;;;;;10.70;7.33;;;17.90;99.90;;;;;;4995653;28;20215;-75
2021/08/17 09:54:18;;;;;;;9.23;7.13;;;18.10;99.90;;;;;;4995565;28;20234;-76
2021/08/17 09:56:54;;;;;;;8.83;7.53;;;18.40;99.90;;;;;;4995924;28;20666;-76
2021/08/17 09:59:20;;;;;;;8.23;7.40;;;18.60;99.90;;;;;;4978134;28;20184;-76
2021/08/17 10:01:47;;;;;;;8.13;7.33;;;18.50;99.90;;;;;;4995623;28;20334;-76
2021/08/17 10:04:14;;;;;;;9.00;8.10;;;18.50;99.90;;;;;;4992520;28;20188;-76
2021/08/17 10:06:42;;;;;;;9.47;8.17;;;18.40;99.90;;;;;;4988486;28;20246;-76
2021/08/17 10:09:08;;;;;;;9.57;8.53;;;18.50;99.90;;;;;;4994937;28;20188;-75
2021/08/17 10:11:34;;;;;;;13.00;8.70;;;18.60;99.90;;;;;;4994633;28;20215;-75
2021/08/17 10:14:01;;;;;;;10.57;8.47;;;18.70;99.90;;;;;;4994888;28;20200;-77
2021/08/17 10:16:30;;;;;;;9.33;8.43;;;18.80;99.90;;;;;;4995232;28;20180;-75
2021/08/17 10:18:57;;;;;;;10.70;8.87;;;18.90;99.90;;;;;;4978125;28;20179;-76
2021/08/17 10:21:23;;;;;;;10.07;9.10;;;19.00;99.90;;;;;;4997543;28;20196;-75
2021/08/17 10:23:49;;;;;;;10.20;8.63;;;19.00;99.90;;;;;;4995279;28;20183;-74
2021/08/17 10:26:32;;;;;;;13.33;8.63;;;18.90;99.90;;;;;;4995469;28;20183;-75
2021/08/17 10:28:59;;;;;;;10.17;9.17;;;19.00;99.90;;;;;;4977564;28;20647;-76
2021/08/17 10:31:32;;;;;;;11.27;9.20;;;19.00;99.90;;;;;;4994660;28;20208;-76
2021/08/17 10:34:13;;;;;;;12.37;8.97;;;19.00;99.90;;;;;;4982832;28;20570;-76
2021/08/17 10:36:42;;;;;;;11.33;9.43;;;19.10;99.90;;;;;;4994874;28;20176;-76
2021/08/17 10:39:16;;;;;;;10.13;9.10;;;19.00;99.90;;;;;;4994799;28;20184;-77
2021/08/17 10:41:43;;;;;;;11.50;9.70;;;19.10;99.90;;;;;;4994988;28;20295;-75
2021/08/17 10:44:11;;;;;;;11.43;9.50;;;19.10;99.90;;;;;;4994849;28;20546;-75
2021/08/17 10:46:45;;;;;;;12.37;9.80;;;19.10;99.90;;;;;;4994541;28;20184;-75
2021/08/17 10:49:44;;;;;;;10.50;9.33;;;18.90;99.90;;;;;;4977187;28;20210;-76
2021/08/17 10:52:31;;;;;;;10.30;8.83;;;18.80;99.90;;;;;;4994694;28;20204;-76
2021/08/17 10:55:23;;;;;;;11.77;10.00;;;18.80;99.90;;;;;;4966946;28;20221;-74
2021/08/17 10:57:57;;;;;;;10.80;9.60;;;19.00;99.90;;;;;;4977040;28;20179;-74
2021/08/17 11:00:41;;;;;;;11.50;10.10;;;19.00;99.90;;;;;;4994449;28;20222;-76
2021/08/17 11:03:06;;;;;;;12.03;10.10;;;19.10;99.90;;;;;;4994274;28;20215;-77
2021/08/17 11:05:52;;;;;;;10.33;9.23;;;19.10;99.90;;;;;;4978452;28;20187;-77
2021/08/17 11:08:32;;;;;;;12.70;11.00;;;19.10;99.90;;;;;;4984686;28;20300;-76
2021/08/17 11:10:59;;;;;;;11.17;9.97;;;19.10;99.90;;;;;;4994159;28;20575;-74
2021/08/17 11:13:26;;;;;;;11.00;9.80;;;19.10;99.90;;;;;;4994057;28;20523;-75
2021/08/17 11:16:12;;;;;;;13.30;10.17;;;19.10;99.90;;;;;;4994161;28;20180;-76
2021/08/17 11:18:58;;;;;;;14.50;10.70;;;19.20;99.90;;;;;;4994289;28;20184;-76
2021/08/17 11:21:35;;;;;;;11.20;9.87;;;19.20;99.90;;;;;;4976296;28;20326;-75
2021/08/17 11:24:10;;;;;;;13.23;9.90;;;19.40;99.90;;;;;;4994084;28;20175;-74
2021/08/17 11:26:37;;;;;;;14.33;11.07;;;19.40;99.90;;;;;;4993946;28;20191;-76
2021/08/17 11:29:03;;;;;;;13.33;10.33;;;19.50;99.90;;;;;;4994031;28;20669;-76
2021/08/17 11:31:29;;;;;;;12.67;10.20;;;19.40;99.90;;;;;;4993747;28;20204;-74
2021/08/17 11:34:18;;;;;;;13.47;10.37;;;19.40;99.90;;;;;;4994005;28;20192;-75
2021/08/17 11:36:50;;;;;;;13.03;10.43;;;19.60;99.90;;;;;;4993995;28;20184;-77
2021/08/17 11:39:17;;;;;;;11.40;10.17;;;19.50;99.90;;;;;;4994265;28;20179;-75
2021/08/17 11:41:43;;;;;;;14.43;10.87;;;19.60;99.90;;;;;;4993818;28;20346;-75
2021/08/17 11:44:11;;;;;;;13.07;11.17;;;19.70;99.90;;;;;;4994062;28;20266;-76
2021/08/17 11:46:37;;;;;;;11.87;10.57;;;19.90;99.90;;;;;;4976365;28;20190;-75
2021/08/17 11:49:23;;;;;;;11.47;10.27;;;20.10;99.90;;;;;;4995414;28;20191;-75
2021/08/17 11:52:03;;;;;;;12.10;10.83;;;20.10;99.90;;;;;;4999217;28;20283;-75
2021/08/17 11:54:30;;;;;;;12.23;10.40;;;20.20;99.90;;;;;;4993661;28;20210;-75
2021/08/17 11:57:02;;;;;;;11.97;10.03;;;20.20;99.90;;;;;;4976387;28;20186;-77
2021/08/17 11:59:42;;;;;;;12.77;11.13;;;20.20;99.90;;;;;;4993798;28;20180;-76
2021/08/17 12:02:08;;;;;;;12.87;10.33;;;20.20;99.90;;;;;;5021893;23;20208;-82
2021/08/17 12:04:34;;;;;;;12.80;10.67;;;20.20;99.90;;;;;;5018058;28;20201;-82
2021/08/17 12:07:09;;;;;;;12.97;10.97;;;20.30;99.90;;;;;;5018185;28;20266;-82
2021/08/17 12:09:37;;;;;;;13.03;11.10;;;20.20;99.90;;;;;;5018123;28;20255;-82
2021/08/17 12:12:04;;;;;;;12.20;10.77;;;20.20;99.90;;;;;;5015512;28;20179;-82
2021/08/17 12:14:30;;;;;;;12.33;11.03;;;20.40;99.90;;;;;;4986739;28;20293;-82
2021/08/17 12:16:58;;;;;;;14.30;11.10;;;20.60;99.90;;;;;;4990658;28;20208;-82
2021/08/17 12:19:24;;;;;;;11.47;10.37;;;20.70;99.90;;;;;;4999384;28;20179;-82
2021/08/17 12:21:50;;;;;;;13.00;11.63;;;20.80;99.90;;;;;;4997448;28;20277;-82
2021/08/17 12:24:27;;;;;;;12.97;11.53;;;20.80;99.90;;;;;;5000459;28;20646;-82
2021/08/17 12:26:58;;;;;;;12.43;11.13;;;21.00;99.90;;;;;;4981050;28;20171;-82
2021/08/17 12:29:25;;;;;;;14.30;11.30;;;21.10;99.90;;;;;;4992334;28;20187;-82
2021/08/17 12:31:52;;;;;;;12.57;11.07;;;21.20;99.90;;;;;;4998934;28;20176;-81
2021/08/17 12:34:23;;;;;;;13.03;11.73;;;21.20;99.90;;;;;;5001405;28;20206;-80
2021/08/17 12:36:51;;;;;;;15.60;11.83;;;21.30;99.90;;;;;;4986704;28;20183;-82
2021/08/17 12:39:21;;;;;;;13.80;12.27;;;21.30;99.90;;;;;;4985022;28;20180;-81